Time;durP1;ratioP1;P1;durP2;ratioP2;P2;SDS_P1;SDS_P2;PMS_P1;PMS_P2;Temp;Humidity;BMP_temperature;BMP_pressure;BME280_temperature;BME280_humidity;BME280_pressure;Samples;Min_cycle;Max_cycle;Signal;HPM_P1;HPM_P2
2022/08/03 00:01:35;;;;;;;2.75;2.00;;;;;;;20.41;73.54;96604.72;5065494;28;20238;-55
2022/08/03 00:04:02;;;;;;;2.25;2.05;;;;;;;20.39;74.32;96596.06;5058102;28;20203;-55
2022/08/03 00:06:28;;;;;;;2.08;1.98;;;;;;;20.38;74.15;96602.44;5053145;28;20203;-55
2022/08/03 00:08:56;;;;;;;2.50;2.40;;;;;;;20.40;72.98;96605.78;5067185;28;20183;-55
2022/08/03 00:11:23;;;;;;;2.40;2.20;;;;;;;20.41;72.58;96604.72;5047554;28;20191;-56
2022/08/03 00:13:50;;;;;;;2.38;2.20;;;;;;;20.33;73.91;96603.06;5043028;28;20238;-55
2022/08/03 00:16:16;;;;;;;4.47;2.20;;;;;;;20.35;73.13;96602.88;5042386;28;20207;-55
2022/08/03 00:18:43;;;;;;;2.17;1.92;;;;;;;20.30;74.12;96603.47;5041763;28;20204;-55
2022/08/03 00:21:10;;;;;;;2.35;2.17;;;;;;;20.22;75.27;96600.97;5042156;28;20235;-55
2022/08/03 00:23:37;;;;;;;3.15;1.90;;;;;;;20.17;74.76;96608.81;5041269;28;20246;-55
2022/08/03 00:26:05;;;;;;;2.10;2.00;;;;;;;20.11;75.01;96600.72;5041579;28;20222;-56
2022/08/03 00:28:32;;;;;;;2.17;2.08;;;;;;;20.20;73.83;96602.19;5044349;28;20238;-54
2022/08/03 00:30:58;;;;;;;2.13;1.95;;;;;;;20.23;72.48;96593.72;5046032;28;20239;-55
2022/08/03 00:33:25;;;;;;;2.22;2.13;;;;;;;20.16;73.56;96595.56;5046148;28;20580;-55
2022/08/03 00:35:52;;;;;;;2.38;2.17;;;;;;;20.09;74.08;96595.56;5045291;28;20654;-54
2022/08/03 00:38:19;;;;;;;2.33;1.95;;;;;;;20.09;73.85;96595.56;5044747;28;20226;-55
2022/08/03 00:40:46;;;;;;;2.60;2.40;;;;;;;20.03;75.23;96599.06;5045230;28;20233;-55
2022/08/03 00:43:14;;;;;;;2.13;1.92;;;;;;;20.07;74.53;96599.47;5045526;28;20254;-56
2022/08/03 00:45:42;;;;;;;2.17;2.00;;;;;;;20.01;75.73;96597.63;5045701;28;20287;-56
2022/08/03 00:48:10;;;;;;;2.10;2.00;;;;;;;19.98;75.90;96593.47;5044209;28;20339;-55
2022/08/03 00:50:40;;;;;;;2.78;2.08;;;;;;;19.95;75.47;96599.25;5045096;28;21534;-56
2022/08/03 00:53:07;;;;;;;1.90;1.80;;;;;;;19.98;74.02;96589.97;5045974;28;20257;-55
2022/08/03 00:55:35;;;;;;;1.80;1.70;;;;;;;19.99;74.04;96595.13;5045569;28;20246;-55
2022/08/03 00:58:05;;;;;;;2.83;2.03;;;;;;;19.99;73.63;96591.59;5044783;28;20679;-55
2022/08/03 01:00:37;;;;;;;2.00;1.90;;;;;;;19.91;75.49;96597.97;5044835;28;20204;-54
2022/08/03 01:03:04;;;;;;;2.38;1.75;;;;;;;19.87;75.51;96592.19;5045473;28;20503;-55
2022/08/03 01:05:33;;;;;;;2.65;2.00;;;;;;;19.79;76.09;96595.09;5044921;28;20239;-55
2022/08/03 01:08:04;;;;;;;2.95;2.00;;;;;;;19.83;75.91;96590.97;5045128;28;20235;-56
2022/08/03 01:10:37;;;;;;;2.58;1.98;;;;;;;19.81;77.02;96587.63;5045226;28;20282;-56
2022/08/03 01:13:14;;;;;;;2.53;2.42;;;;;;;19.74;78.49;96592.16;5044970;28;20195;-56
2022/08/03 01:15:46;;;;;;;2.35;2.25;;;;;;;19.68;79.27;96590.28;5044996;28;20230;-55
2022/08/03 01:18:17;;;;;;;3.78;2.38;;;;;;;19.70;78.70;96590.91;5045791;28;20296;-56
2022/08/03 01:20:45;;;;;;;2.28;2.17;;;;;;;19.81;77.16;96601.06;5044547;28;20257;-55
2022/08/03 01:23:29;;;;;;;2.70;2.50;;;;;;;19.73;78.56;96590.50;5044741;28;20223;-55
2022/08/03 01:26:08;;;;;;;2.42;2.33;;;;;;;19.64;80.00;96591.72;5044677;28;20283;-55
2022/08/03 01:28:52;;;;;;;3.17;2.20;;;;;;;19.66;80.63;96586.97;5045175;28;20242;-55
2022/08/03 01:31:23;;;;;;;2.80;2.70;;;;;;;19.66;81.18;96595.00;5044704;28;20223;-55
2022/08/03 01:33:54;;;;;;;2.67;2.47;;;;;;;19.63;81.21;96595.41;5045288;28;21456;-56
2022/08/03 01:36:24;;;;;;;2.45;2.35;;;;;;;19.62;81.76;96598.31;5044726;28;20294;-55
2022/08/03 01:38:54;;;;;;;3.08;2.80;;;;;;;19.58;82.24;96592.53;5045275;28;20679;-55
2022/08/03 01:41:25;;;;;;;2.70;2.50;;;;;;;19.56;82.88;96597.25;5043839;28;20298;-55
2022/08/03 01:43:53;;;;;;;2.70;2.60;;;;;;;19.64;81.76;96598.94;5044991;28;20245;-55
2022/08/03 01:46:22;;;;;;;2.95;2.40;;;;;;;19.62;82.60;96595.63;5044129;28;20218;-54
2022/08/03 01:48:49;;;;;;;3.05;2.75;;;;;;;19.60;82.43;96589.63;5044241;28;20277;-55
2022/08/03 01:51:18;;;;;;;2.50;2.40;;;;;;;19.58;82.43;96586.31;5044493;28;20591;-55
2022/08/03 01:53:45;;;;;;;3.42;3.13;;;;;;;19.58;82.85;96583.66;5043781;28;20227;-54
2022/08/03 01:56:13;;;;;;;3.38;2.80;;;;;;;19.60;82.25;96584.25;5043949;28;20238;-54
2022/08/03 01:58:41;;;;;;;3.90;2.90;;;;;;;19.43;84.55;96583.78;5062139;28;20208;-55
2022/08/03 02:01:09;;;;;;;2.88;2.67;;;;;;;19.39;85.75;96583.31;5057942;28;20200;-56
2022/08/03 02:03:39;;;;;;;2.80;2.60;;;;;;;19.35;86.47;96587.44;5050626;28;20251;-55
2022/08/03 02:06:07;;;;;;;6.07;2.90;;;;;;;19.32;86.49;96593.19;5044411;28;20548;-55
2022/08/03 02:08:33;;;;;;;3.58;2.83;;;;;;;19.31;86.94;96590.69;5044438;28;20294;-55
2022/08/03 02:11:01;;;;;;;2.92;2.70;;;;;;;19.32;86.51;96589.69;5044066;28;20247;-56
2022/08/03 02:13:28;;;;;;;3.63;2.90;;;;;;;19.34;85.91;96584.97;5044717;28;20231;-55
2022/08/03 02:15:55;;;;;;;3.28;2.97;;;;;;;19.30;86.60;96599.78;5044109;28;20203;-55
2022/08/03 02:18:22;;;;;;;4.13;2.90;;;;;;;19.26;86.74;96588.63;5043562;28;20199;-55
2022/08/03 02:20:51;;;;;;;2.95;2.75;;;;;;;19.26;87.57;96591.31;5043662;28;20660;-55
2022/08/03 02:23:18;;;;;;;2.75;2.55;;;;;;;19.27;87.38;96592.94;5043284;28;20399;-54
2022/08/03 02:25:46;;;;;;;3.50;3.20;;;;;;;19.21;88.57;96595.59;5043833;28;20333;-56
2022/08/03 02:28:17;;;;;;;3.05;2.85;;;;;;;19.22;88.89;96591.91;5043844;28;20278;-54
2022/08/03 02:30:46;;;;;;;3.00;2.80;;;;;;;19.17;89.44;96586.28;5043900;28;20278;-55
2022/08/03 02:33:19;;;;;;;3.20;3.00;;;;;;;19.16;89.80;96585.47;5043297;28;20684;-55
2022/08/03 02:35:47;;;;;;;3.53;3.00;;;;;;;19.13;90.52;96590.41;5041772;28;20596;-56
2022/08/03 02:38:20;;;;;;;3.65;3.20;;;;;;;19.12;89.89;96591.44;5042939;28;20212;-55
2022/08/03 02:40:47;;;;;;;3.35;3.10;;;;;;;19.17;90.06;96578.25;5043613;28;20215;-55
2022/08/03 02:43:17;;;;;;;3.42;3.17;;;;;;;19.12;90.74;96578.84;5043402;28;20258;-55
2022/08/03 02:45:46;;;;;;;5.07;3.50;;;;;;;19.09;91.34;96578.44;5043899;28;20242;-54
2022/08/03 02:48:16;;;;;;;3.95;3.15;;;;;;;19.06;91.72;96582.31;5042462;28;20241;-56
2022/08/03 02:50:44;;;;;;;3.33;3.13;;;;;;;19.02;92.12;96578.41;5042864;28;20283;-56
2022/08/03 02:53:12;;;;;;;3.58;3.38;;;;;;;19.05;91.74;96582.53;5042548;28;20227;-55
2022/08/03 02:55:41;;;;;;;3.45;3.22;;;;;;;19.00;91.74;96583.09;5043124;28;20278;-55
2022/08/03 02:58:09;;;;;;;4.05;3.50;;;;;;;18.96;92.72;96575.66;5043160;28;20637;-54
2022/08/03 03:00:36;;;;;;;3.55;3.22;;;;;;;18.95;93.28;96580.19;5043353;28;20326;-54
2022/08/03 03:03:05;;;;;;;4.13;3.42;;;;;;;18.95;93.60;96579.38;5044173;28;20315;-55
2022/08/03 03:05:32;;;;;;;3.40;3.20;;;;;;;18.89;94.35;96571.09;5042981;28;20201;-55
2022/08/03 03:07:59;;;;;;;3.50;3.22;;;;;;;18.96;92.83;96583.69;5043820;28;20214;-54
2022/08/03 03:10:26;;;;;;;3.70;3.40;;;;;;;18.87;93.71;96580.34;5042956;28;20249;-55
2022/08/03 03:12:56;;;;;;;3.60;3.40;;;;;;;18.87;94.28;96581.19;5043630;28;20238;-55
2022/08/03 03:15:23;;;;;;;3.65;3.20;;;;;;;18.87;94.49;96578.50;5043194;28;20262;-55
2022/08/03 03:17:51;;;;;;;3.75;3.55;;;;;;;18.84;94.48;96578.06;5043860;28;20294;-54
2022/08/03 03:20:18;;;;;;;3.47;3.00;;;;;;;18.83;94.52;96587.13;5043001;28;20603;-54
2022/08/03 03:22:45;;;;;;;4.90;3.15;;;;;;;18.79;94.59;96586.69;5042055;28;20223;-54
2022/08/03 03:25:13;;;;;;;3.67;3.47;;;;;;;18.81;95.13;96589.97;5042603;28;20243;-55
2022/08/03 03:27:40;;;;;;;3.42;3.15;;;;;;;18.84;93.87;96589.63;5042947;28;21454;-55
2022/08/03 03:30:09;;;;;;;3.58;3.28;;;;;;;18.79;94.60;96591.22;5042404;28;20227;-55
2022/08/03 03:32:36;;;;;;;3.42;3.13;;;;;;;18.84;93.30;96589.63;5042194;28;20294;-54
2022/08/03 03:35:03;;;;;;;3.40;3.10;;;;;;;18.87;92.33;96593.75;5042315;28;20219;-55
2022/08/03 03:37:29;;;;;;;3.95;3.65;;;;;;;18.85;91.88;96591.25;5042154;28;20299;-56
2022/08/03 03:39:56;;;;;;;3.60;3.30;;;;;;;18.83;91.84;96592.47;5042021;28;20715;-54
2022/08/03 03:42:23;;;;;;;3.45;3.15;;;;;;;18.78;91.77;96590.38;5042447;28;20270;-55
2022/08/03 03:44:50;;;;;;;4.50;3.13;;;;;;;18.76;91.56;96592.44;5041841;28;20551;-55
2022/08/03 03:47:18;;;;;;;3.58;3.30;;;;;;;18.76;91.27;96597.78;5042471;28;20230;-56
2022/08/03 03:49:45;;;;;;;3.60;3.30;;;;;;;18.75;91.37;96598.81;5041682;28;20227;-55
2022/08/03 03:52:12;;;;;;;3.80;3.50;;;;;;;18.69;93.18;96606.78;5042037;28;20227;-55
2022/08/03 03:54:42;;;;;;;3.67;3.38;;;;;;;18.57;94.49;96603.81;5042299;28;20278;-56
2022/08/03 03:57:10;;;;;;;3.72;3.53;;;;;;;18.58;94.48;96599.28;5041815;28;20267;-55
2022/08/03 03:59:38;;;;;;;3.92;3.40;;;;;;;18.57;94.10;96598.44;5041439;28;20707;-55
2022/08/03 04:02:04;;;;;;;3.55;3.33;;;;;;;18.57;94.00;96598.44;5058913;28;20254;-55
2022/08/03 04:12:46;;;;;;;3.20;3.00;;;;;;;18.50;94.87;96608.25;5046029;28;20248;-55
2022/08/03 04:15:13;;;;;;;3.42;3.15;;;;;;;18.45;94.83;96600.00;5046303;28;20235;-55
2022/08/03 04:17:41;;;;;;;3.33;3.05;;;;;;;18.45;94.84;96602.66;5046090;28;20256;-56
2022/08/03 04:20:12;;;;;;;3.58;3.00;;;;;;;18.45;95.62;96604.50;5046358;28;20328;-55
2022/08/03 04:22:40;;;;;;;3.58;2.95;;;;;;;18.47;95.80;96605.13;5046691;28;20199;-55
2022/08/03 04:25:09;;;;;;;3.70;3.38;;;;;;;18.47;95.72;96605.97;5046439;28;20215;-55
2022/08/03 04:27:38;;;;;;;3.28;3.08;;;;;;;18.50;94.84;96608.25;5046310;28;20249;-55
2022/08/03 04:30:06;;;;;;;3.60;3.30;;;;;;;18.53;94.40;96609.78;5045873;28;20506;-56
2022/08/03 04:32:36;;;;;;;3.70;3.13;;;;;;;18.52;94.90;96600.06;5046454;28;20227;-55
2022/08/03 04:35:03;;;;;;;3.47;3.28;;;;;;;18.64;94.23;96604.69;5046308;28;20207;-55
2022/08/03 04:37:37;;;;;;;2.90;2.72;;;;;;;18.75;94.37;96606.00;5046063;28;20695;-55
2022/08/03 04:40:07;;;;;;;3.50;3.30;;;;;;;18.81;94.73;96608.72;5045640;28;20691;-55
2022/08/03 04:42:34;;;;;;;3.72;3.30;;;;;;;18.95;93.64;96611.53;5045654;28;20208;-55
2022/08/03 04:45:01;;;;;;;3.30;3.10;;;;;;;18.92;94.60;96625.31;5046274;28;20278;-54
2022/08/03 04:47:30;;;;;;;3.13;2.85;;;;;;;18.90;95.06;96625.50;5045595;28;20287;-55
2022/08/03 04:49:56;;;;;;;3.67;3.47;;;;;;;19.05;94.91;96623.56;5044204;28;20270;-56
2022/08/03 04:52:23;;;;;;;4.13;3.60;;;;;;;19.21;94.12;96622.41;5045838;28;20586;-56
2022/08/03 04:54:51;;;;;;;3.42;3.22;;;;;;;19.44;92.54;96624.84;5045468;28;21274;-56
2022/08/03 04:57:18;;;;;;;4.20;3.67;;;;;;;19.74;91.53;96624.34;5045996;28;20208;-54
2022/08/03 04:59:45;;;;;;;3.58;3.28;;;;;;;20.32;86.60;96633.66;5045494;28;20286;-54
2022/08/03 05:02:11;;;;;;;3.30;3.10;;;;;;;20.85;84.76;96623.78;5044421;28;20300;-55
2022/08/03 05:04:40;;;;;;;3.70;3.22;;;;;;;21.04;82.49;96629.34;5045393;28;20251;-56
2022/08/03 05:07:07;;;;;;;3.40;3.20;;;;;;;20.79;83.56;96632.69;5045292;28;20643;-55
2022/08/03 05:09:35;;;;;;;3.42;3.20;;;;;;;20.74;84.34;96632.44;5045799;28;20199;-55
2022/08/03 05:12:03;;;;;;;3.33;3.03;;;;;;;20.46;86.23;96629.13;5045056;28;20246;-55
2022/08/03 05:14:30;;;;;;;3.22;3.00;;;;;;;20.50;87.34;96635.75;5044904;28;21041;-56
2022/08/03 05:16:57;;;;;;;3.53;3.33;;;;;;;20.92;85.26;96628.31;5044638;28;20209;-57
2022/08/03 05:19:23;;;;;;;4.38;3.35;;;;;;;21.65;81.15;96630.66;5045018;28;20276;-56
2022/08/03 05:21:50;;;;;;;3.53;3.22;;;;;;;22.26;76.97;96632.91;5044837;28;20226;-56
2022/08/03 05:24:17;;;;;;;3.25;3.05;;;;;;;22.59;74.64;96636.22;5044763;28;20220;-54
2022/08/03 05:26:43;;;;;;;5.72;3.13;;;;;;;22.95;73.07;96632.88;5044340;28;20204;-55
2022/08/03 05:29:12;;;;;;;6.22;3.33;;;;;;;22.87;70.68;96635.84;5045017;28;20211;-55
2022/08/03 05:31:39;;;;;;;3.10;2.90;;;;;;;22.80;72.24;96640.44;5044201;28;20305;-56
2022/08/03 05:34:06;;;;;;;3.47;3.28;;;;;;;22.83;70.81;96639.19;5044694;28;20235;-55
2022/08/03 05:36:32;;;;;;;3.13;2.75;;;;;;;22.69;73.19;96644.69;5045404;28;20570;-55
2022/08/03 05:38:59;;;;;;;4.53;3.45;;;;;;;22.85;72.28;96642.50;5045215;28;20278;-55
2022/08/03 05:41:25;;;;;;;6.68;3.60;;;;;;;22.93;69.86;96639.50;5044657;28;20199;-55
2022/08/03 05:43:53;;;;;;;3.45;3.15;;;;;;;22.96;69.90;96634.50;5044593;28;20231;-55
2022/08/03 05:46:21;;;;;;;3.30;3.05;;;;;;;22.96;70.56;96633.66;5044814;28;20211;-55
2022/08/03 05:48:48;;;;;;;5.28;3.50;;;;;;;23.06;69.27;96644.81;5043976;28;20262;-54
2022/08/03 05:51:15;;;;;;;3.35;3.05;;;;;;;23.22;71.12;96638.84;5045821;28;20207;-56
2022/08/03 05:53:42;;;;;;;5.00;3.30;;;;;;;23.28;68.94;96632.53;5045331;28;20195;-54
2022/08/03 05:56:08;;;;;;;9.95;3.13;;;;;;;23.44;68.00;96633.88;5044402;28;20293;-56
2022/08/03 05:58:36;;;;;;;5.57;3.28;;;;;;;23.59;69.81;96637.88;5045531;28;20269;-55
2022/08/03 06:01:02;;;;;;;3.30;3.00;;;;;;;23.74;69.03;96638.31;5043990;28;20230;-55
2022/08/03 06:03:30;;;;;;;5.10;3.33;;;;;;;23.99;67.55;96631.97;5045668;28;20219;-56
2022/08/03 06:05:57;;;;;;;3.75;3.00;;;;;;;24.26;65.92;96634.16;5050867;28;20238;-56
2022/08/03 06:08:24;;;;;;;3.60;3.30;;;;;;;24.26;66.31;96636.84;5046720;28;20593;-55
2022/08/03 06:10:50;;;;;;;3.70;3.28;;;;;;;24.59;64.25;96630.94;5045548;28;20284;-56
2022/08/03 06:13:17;;;;;;;4.70;3.72;;;;;;;24.66;63.63;96631.69;5044496;28;20299;-56
2022/08/03 06:15:43;;;;;;;4.90;3.53;;;;;;;24.76;64.53;96631.94;5044365;28;20290;-56
2022/08/03 06:18:10;;;;;;;5.22;3.85;;;;;;;24.89;63.44;96630.09;5044078;28;20283;-56
2022/08/03 06:20:38;;;;;;;3.92;3.08;;;;;;;24.88;61.22;96633.88;5043145;28;20235;-56
2022/08/03 06:23:05;;;;;;;5.40;3.55;;;;;;;25.08;61.30;96635.19;5044096;28;20596;-56
2022/08/03 06:25:31;;;;;;;6.28;3.50;;;;;;;25.32;62.97;96641.44;5043843;28;20218;-56
2022/08/03 06:27:59;;;;;;;5.43;3.42;;;;;;;25.62;61.54;96634.03;5043608;28;20202;-56
2022/08/03 06:30:26;;;;;;;3.72;3.42;;;;;;;25.84;59.82;96638.81;5044243;28;20203;-56
2022/08/03 06:32:52;;;;;;;4.28;3.83;;;;;;;25.94;59.74;96633.59;5043549;28;20204;-56
2022/08/03 06:35:19;;;;;;;4.57;4.00;;;;;;;26.07;58.72;96633.34;5043200;28;20282;-56
2022/08/03 06:37:48;;;;;;;6.85;4.10;;;;;;;26.13;58.89;96637.81;5043111;28;20210;-56
2022/08/03 06:40:18;;;;;;;5.95;4.15;;;;;;;26.24;59.47;96636.97;5043077;28;20269;-56
2022/08/03 06:42:45;;;;;;;6.20;3.90;;;;;;;26.33;59.77;96632.78;5042933;28;20204;-56
2022/08/03 06:45:12;;;;;;;5.47;3.40;;;;;;;26.75;56.97;96636.00;5043199;28;20323;-55
2022/08/03 06:47:39;;;;;;;6.75;4.05;;;;;;;26.63;56.71;96646.94;5042718;28;20195;-56
2022/08/03 06:50:08;;;;;;;4.75;4.30;;;;;;;26.78;57.37;96648.28;5042580;28;20239;-56
2022/08/03 06:52:34;;;;;;;4.53;4.00;;;;;;;26.78;57.28;96651.00;5042737;28;20247;-57
2022/08/03 06:55:02;;;;;;;5.03;4.38;;;;;;;26.48;57.95;96648.53;5042666;28;20629;-57
2022/08/03 06:57:29;;;;;;;5.40;3.97;;;;;;;27.00;57.74;96641.06;5043024;28;20207;-56
2022/08/03 07:00:00;;;;;;;5.20;3.97;;;;;;;27.10;56.70;96650.19;5054833;28;20262;-55
2022/08/03 07:02:27;;;;;;;6.55;4.03;;;;;;;27.13;56.83;96649.72;5044022;28;20203;-57
2022/08/03 07:04:53;;;;;;;4.65;3.80;;;;;;;27.12;56.08;96658.09;5042372;28;20310;-55
2022/08/03 07:07:20;;;;;;;7.07;3.90;;;;;;;27.40;54.47;96654.47;5042220;28;20794;-56
2022/08/03 07:09:47;;;;;;;5.05;3.40;;;;;;;27.57;55.37;96661.56;5042449;28;20295;-55
2022/08/03 07:12:15;;;;;;;5.82;3.80;;;;;;;27.52;55.37;96653.34;5042143;28;20206;-55
2022/08/03 07:14:42;;;;;;;3.72;3.42;;;;;;;27.68;54.73;96652.47;5042899;28;20209;-55
2022/08/03 07:17:09;;;;;;;4.22;3.83;;;;;;;27.87;54.95;96654.91;5042188;28;20231;-57
2022/08/03 07:19:35;;;;;;;5.13;3.83;;;;;;;27.96;53.02;96653.38;5044424;28;20651;-56
2022/08/03 07:22:03;;;;;;;4.18;3.72;;;;;;;28.02;54.17;96641.53;5043278;28;21498;-56
2022/08/03 07:24:29;;;;;;;4.35;3.67;;;;;;;28.05;55.71;96650.00;5044877;28;20710;-56
2022/08/03 07:26:56;;;;;;;3.95;3.72;;;;;;;28.41;53.27;96645.00;5044130;28;20622;-55
2022/08/03 07:29:24;;;;;;;5.30;3.65;;;;;;;28.67;53.17;96650.47;5042273;28;20265;-56
2022/08/03 07:31:51;;;;;;;3.70;3.38;;;;;;;28.96;52.17;96647.47;5042408;28;20543;-55
2022/08/03 07:34:18;;;;;;;3.83;3.40;;;;;;;29.02;50.78;96647.25;5042190;28;20195;-56
2022/08/03 07:36:44;;;;;;;3.58;3.30;;;;;;;29.23;48.85;96650.16;5049607;28;20286;-56
2022/08/03 07:39:11;;;;;;;5.55;3.53;;;;;;;29.11;50.58;96650.34;5053075;28;20635;-56
2022/08/03 07:41:37;;;;;;;4.65;3.90;;;;;;;29.19;48.58;96652.59;5053946;28;20211;-55
2022/08/03 07:44:04;;;;;;;3.83;3.47;;;;;;;29.46;48.54;96647.09;5054872;28;20313;-56
2022/08/03 07:46:32;;;;;;;5.53;3.60;;;;;;;29.53;50.11;96653.94;5054029;28;20234;-56
2022/08/03 07:48:59;;;;;;;3.75;3.35;;;;;;;29.63;50.33;96643.13;5054423;28;20239;-56
2022/08/03 07:51:26;;;;;;;4.70;3.03;;;;;;;29.76;49.62;96650.00;5055086;28;20598;-56
2022/08/03 07:53:54;;;;;;;3.40;3.20;;;;;;;29.90;48.39;96647.66;5054690;28;20207;-57
2022/08/03 07:56:21;;;;;;;3.65;3.05;;;;;;;29.91;47.06;96643.84;5054032;28;20211;-56
2022/08/03 07:58:48;;;;;;;3.45;3.15;;;;;;;29.86;48.23;96646.56;5054415;28;20207;-56
2022/08/03 08:01:15;;;;;;;5.38;3.30;;;;;;;30.12;48.35;96638.22;5054744;28;20264;-57
2022/08/03 08:03:43;;;;;;;3.58;3.35;;;;;;;30.47;46.37;96644.91;5054941;28;20557;-56
2022/08/03 08:06:10;;;;;;;3.80;3.50;;;;;;;30.43;45.96;96641.09;5060250;28;20674;-57
2022/08/03 08:08:37;;;;;;;4.15;3.20;;;;;;;30.46;46.56;96640.53;5058831;28;20295;-57
2022/08/03 08:11:04;;;;;;;4.28;3.17;;;;;;;30.72;45.24;96638.66;5057186;28;20291;-56
2022/08/03 08:13:31;;;;;;;4.32;3.10;;;;;;;30.82;44.85;96638.72;5055026;28;20230;-56
2022/08/03 08:15:58;;;;;;;3.55;3.25;;;;;;;30.80;45.66;96636.25;5054554;28;20246;-56
2022/08/03 08:18:24;;;;;;;3.65;3.30;;;;;;;30.81;46.35;96632.44;5040895;28;20294;-55
2022/08/03 08:20:52;;;;;;;3.63;3.30;;;;;;;30.73;45.70;96629.41;5055185;28;20301;-56
2022/08/03 08:23:22;;;;;;;3.90;3.53;;;;;;;30.58;43.84;96638.38;5055248;28;20223;-56
2022/08/03 08:25:49;;;;;;;3.63;3.33;;;;;;;30.33;46.14;96635.53;5054953;28;20559;-56
2022/08/03 08:28:17;;;;;;;4.20;3.50;;;;;;;29.99;46.61;96629.69;5055323;28;20625;-57
2022/08/03 08:30:44;;;;;;;4.15;3.60;;;;;;;30.21;48.11;96641.25;5054613;28;20215;-56
2022/08/03 08:33:11;;;;;;;5.20;3.50;;;;;;;30.44;47.02;96637.25;5048891;28;20214;-56
2022/08/03 08:35:38;;;;;;;3.72;3.47;;;;;;;30.73;46.82;96634.84;5054856;28;20242;-56
2022/08/03 08:38:06;;;;;;;4.93;3.80;;;;;;;30.74;45.40;96631.03;5054703;28;20203;-56
2022/08/03 08:40:33;;;;;;;3.83;3.50;;;;;;;30.69;44.58;96639.22;5054795;28;20211;-56
2022/08/03 08:42:59;;;;;;;7.80;3.58;;;;;;;30.48;44.66;96635.63;5055803;28;20217;-56
2022/08/03 08:45:26;;;;;;;4.20;3.80;;;;;;;31.07;45.45;96630.56;5054849;28;20619;-57
2022/08/03 08:47:55;;;;;;;3.60;3.30;;;;;;;30.96;44.97;96634.34;5054615;28;20210;-58
2022/08/03 08:50:22;;;;;;;4.72;3.15;;;;;;;30.86;46.09;96628.84;5058070;28;20235;-56
2022/08/03 08:52:50;;;;;;;3.85;3.40;;;;;;;31.30;45.33;96630.00;5058171;28;20236;-56
2022/08/03 08:55:21;;;;;;;4.18;3.30;;;;;;;31.18;43.63;96629.44;5058648;28;20282;-56
2022/08/03 08:57:49;;;;;;;4.22;3.22;;;;;;;31.23;44.04;96632.19;5058934;28;20221;-55
2022/08/03 09:00:17;;;;;;;4.53;3.35;;;;;;;31.15;44.07;96631.91;5057675;28;20214;-56
2022/08/03 09:02:44;;;;;;;3.72;3.38;;;;;;;30.92;43.38;96633.25;5058395;28;20203;-55
2022/08/03 09:05:12;;;;;;;4.47;3.63;;;;;;;31.27;44.67;96632.47;5059431;28;20219;-56
2022/08/03 09:07:39;;;;;;;4.03;3.20;;;;;;;31.35;43.50;96632.75;5063152;28;20218;-56
2022/08/03 09:10:07;;;;;;;5.68;3.42;;;;;;;31.44;43.27;96625.63;5062772;28;20207;-57
2022/08/03 09:12:39;;;;;;;6.13;3.50;;;;;;;31.43;45.56;96628.59;5053231;28;20215;-57
2022/08/03 09:15:21;;;;;;;6.20;3.55;;;;;;;31.38;41.75;96629.47;5064515;28;20223;-57
2022/08/03 09:17:48;;;;;;;3.45;3.15;;;;;;;31.76;43.42;96622.56;5067855;28;20627;-56
2022/08/03 09:20:14;;;;;;;3.25;3.00;;;;;;;31.79;43.08;96622.00;5072654;28;20203;-56
2022/08/03 09:22:55;;;;;;;4.25;3.00;;;;;;;32.15;43.57;96630.94;5080458;28;20188;-55
2022/08/03 09:25:33;;;;;;;3.42;3.17;;;;;;;32.33;42.13;96622.09;5079624;28;20211;-56
2022/08/03 09:28:09;;;;;;;3.50;3.20;;;;;;;31.96;41.30;96625.22;5080565;28;20210;-56
2022/08/03 09:30:37;;;;;;;8.45;3.45;;;;;;;31.93;42.86;96617.59;5079631;28;20203;-57
2022/08/03 09:33:05;;;;;;;5.80;3.17;;;;;;;31.98;42.03;96625.78;5067980;28;20199;-56
2022/08/03 09:35:33;;;;;;;4.10;3.10;;;;;;;31.92;40.65;96615.94;5077739;28;20210;-62
2022/08/03 09:38:12;;;;;;;3.20;3.00;;;;;;;32.38;41.11;96619.31;5080295;28;20208;-56
2022/08/03 09:40:39;;;;;;;2.90;2.70;;;;;;;32.51;39.32;96616.00;5080824;28;20190;-56
2022/08/03 09:43:08;;;;;;;3.17;2.97;;;;;;;32.52;38.33;96612.13;5080252;28;20223;-57
2022/08/03 09:45:35;;;;;;;3.30;3.10;;;;;;;32.66;40.39;96611.56;5078579;28;20211;-56
2022/08/03 09:48:21;;;;;;;3.08;2.90;;;;;;;32.95;38.94;96617.91;5066914;28;20203;-57
2022/08/03 09:50:48;;;;;;;3.10;2.85;;;;;;;32.93;38.33;96615.47;5049438;28;20218;-56
2022/08/03 09:53:15;;;;;;;3.20;2.88;;;;;;;32.94;37.19;96610.81;5056204;28;20206;-57
2022/08/03 09:55:50;;;;;;;2.90;2.65;;;;;;;32.93;36.82;96618.19;5056576;28;20644;-56
2022/08/03 09:58:20;;;;;;;2.33;2.17;;;;;;;32.83;38.38;96611.97;5055523;28;20195;-57
2022/08/03 10:00:55;;;;;;;3.15;2.90;;;;;;;32.95;37.54;96618.72;5054966;28;20196;-56
2022/08/03 10:03:22;;;;;;;2.85;2.58;;;;;;;33.12;37.09;96610.13;5056152;28;20297;-58
2022/08/03 10:05:49;;;;;;;2.90;2.55;;;;;;;33.13;37.44;96606.28;5060091;28;20235;-56
2022/08/03 10:08:17;;;;;;;5.45;3.35;;;;;;;33.23;38.95;96608.91;5059414;28;20584;-57
2022/08/03 10:10:45;;;;;;;2.72;2.53;;;;;;;33.17;36.82;96607.34;5067954;28;20215;-58
2022/08/03 10:13:13;;;;;;;2.90;2.70;;;;;;;32.95;37.44;96609.69;5056371;28;20715;-56
2022/08/03 10:15:41;;;;;;;3.30;2.70;;;;;;;32.94;38.35;96608.06;5056267;28;20794;-56
2022/08/03 10:18:08;;;;;;;6.03;2.92;;;;;;;33.31;37.84;96597.34;5056501;28;20268;-58
2022/08/03 10:20:38;;;;;;;3.10;2.90;;;;;;;33.37;37.72;96596.19;5055856;28;20242;-57
2022/08/03 10:23:05;;;;;;;3.17;2.92;;;;;;;33.61;38.18;96589.94;5056104;28;20214;-56
2022/08/03 10:25:33;;;;;;;3.53;2.60;;;;;;;32.82;34.88;96591.97;5055678;28;20227;-56
2022/08/03 10:28:03;;;;;;;3.35;2.88;;;;;;;33.19;36.33;96585.97;5049930;28;20294;-56
2022/08/03 10:30:30;;;;;;;2.70;2.50;;;;;;;33.35;35.66;96590.19;5048868;28;20243;-56
2022/08/03 10:33:02;;;;;;;3.20;2.65;;;;;;;33.36;35.32;96585.50;5056006;28;20269;-58
2022/08/03 10:35:29;;;;;;;2.80;2.60;;;;;;;33.52;35.18;96589.72;5055743;28;20647;-56
2022/08/03 10:38:00;;;;;;;3.70;2.88;;;;;;;33.50;37.73;96581.00;5056028;28;20269;-56
2022/08/03 10:40:27;;;;;;;3.10;2.90;;;;;;;33.71;36.93;96579.69;5055330;28;20256;-55
2022/08/03 10:42:56;;;;;;;4.00;2.88;;;;;;;34.05;37.42;96574.06;5055881;28;20282;-57
2022/08/03 10:45:24;;;;;;;2.80;2.60;;;;;;;33.95;36.03;96566.78;5055518;28;20872;-57
2022/08/03 10:47:52;;;;;;;3.47;2.90;;;;;;;34.22;36.52;96571.69;5055347;28;20234;-56
2022/08/03 10:50:20;;;;;;;2.80;2.60;;;;;;;34.27;34.27;96568.84;5055747;28;20199;-57
2022/08/03 10:52:56;;;;;;;3.33;3.13;;;;;;;34.34;35.08;96566.56;5055863;28;20207;-57
2022/08/03 10:58:49;;;;;;;3.60;3.30;;;;;;;34.52;35.10;96553.13;5055751;28;20342;-56
2022/08/03 11:01:17;;;;;;;3.70;2.80;;;;;;;34.35;33.67;96557.22;5055166;28;20207;-57
2022/08/03 11:04:14;;;;;;;2.80;2.60;;;;;;;34.59;35.50;96559.88;5055613;28;20213;-56
2022/08/03 11:06:42;;;;;;;3.10;2.90;;;;;;;34.69;33.57;96558.94;5055018;28;20219;-57
2022/08/03 11:09:17;;;;;;;2.92;2.72;;;;;;;34.66;34.19;96554.03;5055168;28;20233;-57
2022/08/03 11:11:45;;;;;;;4.38;2.95;;;;;;;34.69;35.19;96548.75;5055082;28;20202;-56
2022/08/03 11:14:14;;;;;;;2.88;2.67;;;;;;;34.64;31.65;96540.63;5054457;28;20632;-57
2022/08/03 11:16:44;;;;;;;2.97;2.72;;;;;;;34.59;31.75;96548.06;5055101;28;20230;-55
2022/08/03 11:19:11;;;;;;;2.45;2.35;;;;;;;34.72;33.49;96544.63;5055443;28;20210;-56
2022/08/03 11:21:56;;;;;;;2.92;2.60;;;;;;;34.69;33.09;96537.78;5055269;28;20297;-56
2022/08/03 11:24:57;;;;;;;3.70;2.85;;;;;;;34.53;32.13;96539.09;5068357;28;20704;-57
2022/08/03 11:27:24;;;;;;;2.88;2.50;;;;;;;34.64;34.20;96535.13;5054918;28;20207;-57
2022/08/03 11:29:55;;;;;;;3.28;2.97;;;;;;;34.58;33.92;96530.78;5054806;28;20203;-57
2022/08/03 11:32:57;;;;;;;2.75;2.63;;;;;;;34.80;34.49;96538.44;5054239;28;20290;-57
2022/08/03 11:35:25;;;;;;;4.10;2.95;;;;;;;34.68;33.65;96538.91;5048165;28;20702;-56
2022/08/03 11:38:10;;;;;;;2.78;2.58;;;;;;;34.77;34.24;96533.53;5054388;28;20203;-57
2022/08/03 11:40:41;;;;;;;2.88;2.75;;;;;;;34.91;35.08;96529.72;5054706;28;20273;-58
2022/08/03 11:43:09;;;;;;;3.00;2.80;;;;;;;34.60;32.08;96535.97;5054407;28;20199;-57
2022/08/03 11:45:36;;;;;;;3.63;2.70;;;;;;;34.71;34.36;96534.75;5054398;28;20229;-56
2022/08/03 11:48:14;;;;;;;4.57;2.67;;;;;;;34.69;34.38;96525.97;5054457;28;20269;-57
2022/08/03 11:50:43;;;;;;;3.55;3.08;;;;;;;34.81;34.46;96523.59;5054632;28;20210;-57
2022/08/03 11:53:14;;;;;;;2.83;2.50;;;;;;;34.86;34.35;96529.00;5041477;28;20211;-57